Latest Weather Observations for Mount Hotham Airport

IDV60801

Issued at 11:32 am EDT Monday 22 December 2014 (issued every 30 minutes, with the page automatically refreshed every 10 minutes)

About weather observations | Map of weather stations | Latest weather observations for VIC | Other Formats
Station Details ID: 083055 Name: MOUNT HOTHAM AIRPORT Lat: -37.05 Lon: 147.33 Height: 1295.4 m
Data from the previous 72 hours. | See also: Recent months at Mount Hotham Airport
Date/Time
EDT
Temp
°C
App
Temp
°C
Dew
Point
Rel
Hum
%
Delta-T
°C
Wind Press
QNH
hPa
Press
MSL
hPa
Rain
since 9 am
mm
Dir
 
Spd
km/h
Gust
km/h
Spd
kts
Gust
kts
22/11:30am 22.7 20.0 5.6 33 9.2 N 9 17 5 9 1019.6 - 0.0
22/11:00am 21.9 19.6 9.1 44 7.3 ENE 11 19 6 10 1019.4 - 0.0
22/10:30am 23.1 20.2 8.0 38 8.5 ENE 13 22 7 12 1019.6 - 0.0
22/10:00am 22.8 20.5 10.3 45 7.3 ENE 13 17 7 9 1019.6 - 0.0
22/09:30am 22.7 20.6 9.8 44 7.4 ENE 11 17 6 9 1019.7 - 0.0
22/09:00am 21.5 19.3 6.2 37 8.2 ENE 7 11 4 6 1019.9 1017.6 0.0
22/08:30am 20.7 18.3 5.1 36 8.2 NNE 7 9 4 5 1019.8 - 0.0
22/08:00am 19.2 17.7 7.0 45 6.6 NNW 4 7 2 4 1019.6 - 0.0
22/07:30am 17.5 16.0 8.4 55 5.0 NW 6 7 3 4 1019.4 - 0.0
22/07:00am 15.1 13.1 6.4 56 4.5 NW 6 7 3 4 1019.1 - 0.0
22/06:30am 10.8 8.7 5.8 71 2.5 NW 6 7 3 4 1018.9 - 0.0
22/06:00am 12.3 10.5 3.5 55 4.2 W 2 6 1 3 1018.8 1016.5 0.0
22/05:30am 11.1 8.7 4.1 62 3.4 NW 6 7 3 4 1018.7 - 0.0
22/05:00am 10.6 8.2 4.3 65 3.0 NNW 6 7 3 4 1018.5 - 0.0
22/04:30am 9.1 6.4 3.5 68 2.6 NNW 7 7 4 4 1018.4 - 0.0
22/04:00am 11.9 9.3 4.2 59 3.7 NW 7 9 4 5 1018.4 - 0.0
22/03:30am 9.6 7.1 4.0 68 2.7 NNW 6 7 3 4 1018.5 - 0.0
22/03:00am 10.6 8.2 4.5 66 3.0 NW 6 7 3 4 1018.5 1016.1 0.0
22/02:30am 12.8 10.3 4.5 57 4.1 NNW 7 9 4 5 1018.7 - 0.0
22/02:00am 10.0 7.9 5.8 75 2.1 NW 6 7 3 4 1019.0 - 0.0
22/01:30am 12.1 10.6 6.6 69 2.8 WNW 4 6 2 3 1019.3 - 0.0
22/01:00am 11.2 10.1 10.1 93 0.6 WNW 6 7 3 4 1019.5 - 0.0
22/12:30am 10.0 9.1 9.1 94 0.5 NW 4 6 2 3 1019.5 - 0.0
22/12:00am 9.6 7.9 8.4 92 0.6 NNE 7 9 4 5 1019.8 1017.5 0.0
 
Date/Time
EDT
Temp
°C
App
Temp
°C
Dew
Point
Rel
Hum
%
Delta-T
°C
Wind Press
QNH
hPa
Press
MSL
hPa
Rain
since 9 am
mm
Dir
 
Spd
km/h
Gust
km/h
Spd
kts
Gust
kts
21/11:30pm 11.5 10.2 9.9 90 0.9 NNW 7 9 4 5 1019.8 - 0.0
21/11:00pm 10.3 8.9 8.7 90 0.8 N 6 9 3 5 1019.8 - 0.0
21/10:30pm 11.5 10.9 9.1 85 1.3 NNW 2 2 1 1 1020.2 - 0.0
21/10:00pm 11.7 11.0 10.1 90 0.9 WNW 4 6 2 3 1019.9 - 0.0
21/09:30pm 12.4 12.1 10.0 85 1.3 WSW 2 6 1 3 1019.8 - 0.0
21/09:00pm 12.8 12.1 10.2 84 1.4 SW 4 6 2 3 1019.9 1017.6 0.0
21/08:30pm 14.0 13.6 9.6 75 2.4 NNE 2 4 1 2 1019.7 - 0.0
21/08:00pm 16.3 15.2 10.6 69 3.2 E 7 11 4 6 1019.5 - 0.0
21/07:30pm 17.2 15.4 10.8 66 3.7 SE 11 19 6 10 1019.4 - 0.0
21/07:00pm 18.4 14.8 10.5 60 4.5 SE 20 28 11 15 1019.3 - 0.0
21/06:30pm 20.7 19.0 11.1 54 5.6 N 11 15 6 8 1018.9 - 0.0
21/06:00pm 19.7 17.5 6.4 42 7.1 NW 7 11 4 6 1018.7 1016.3 0.0
21/05:30pm 21.8 18.8 6.1 36 8.4 WNW 11 17 6 9 1018.5 - 0.0
21/05:00pm 22.5 19.2 4.5 31 9.4 W 11 19 6 10 1018.6 - 0.0
21/04:30pm 22.3 18.6 6.1 35 8.7 W 15 35 8 19 1019.0 - 0.0
21/04:00pm 22.1 19.5 7.9 40 7.9 WNW 11 20 6 11 1019.1 - 0.0
21/03:30pm 21.6 19.0 9.2 45 7.0 WNW 13 20 7 11 1019.4 - 0.0
21/03:00pm 19.8 16.1 6.5 42 7.1 W 15 22 8 12 1019.7 1017.4 0.0
21/02:30pm 20.7 17.3 7.7 43 7.2 W 15 26 8 14 1019.7 - 0.0
21/02:00pm 20.0 17.7 7.4 44 6.9 WNW 9 19 5 10 1019.7 - 0.0
21/01:30pm 21.5 17.7 7.7 41 7.6 NW 17 24 9 13 1019.7 - 0.0
21/01:00pm 21.2 17.5 7.8 42 7.4 WNW 17 28 9 15 1019.6 - 0.0
21/12:30pm 20.6 16.3 6.9 41 7.4 NW 19 30 10 16 1019.8 - 0.0
21/12:00pm 20.2 15.4 5.4 38 7.8 NNW 20 32 11 17 1020.1 1017.7 0.0
21/11:30am 19.9 15.3 5.5 39 7.6 WNW 19 30 10 16 1020.1 - 0.0
21/11:00am 19.8 15.5 7.2 44 6.8 NW 19 28 10 15 1019.8 - 0.0
21/10:30am 19.3 14.6 6.1 42 7.0 NW 20 32 11 17 1019.8 - 0.0
21/10:00am 18.6 13.7 5.1 41 7.0 WNW 20 33 11 18 1020.1 - 0.0
21/09:30am 18.3 12.7 5.5 43 6.7 W 24 35 13 19 1020.4 - 0.0
21/09:00am 17.9 12.8 5.8 45 6.3 W 22 30 12 16 1020.2 1017.9 0.2
21/08:30am 17.6 14.5 7.1 50 5.6 WNW 13 19 7 10 1019.9 - 0.2
21/08:00am 15.8 14.4 8.8 63 3.8 NW 6 11 3 6 1019.5 - 0.2
21/07:30am 13.1 11.9 9.5 79 2.0 N 6 9 3 5 1019.1 - 0.2
21/07:00am 11.8 10.4 9.4 85 1.3 NW 7 13 4 7 1018.8 - 0.2
21/06:30am 7.9 6.6 7.8 99 0.1 WNW 4 7 2 4 1018.7 - 0.2
21/06:00am 6.6 4.5 5.7 94 0.4 NW 6 7 3 4 1018.5 1016.1 0.2
21/05:30am 6.7 5.8 6.1 96 0.3 CALM 0 0 0 0 1018.4 - 0.2
21/05:00am 8.7 7.2 8.6 99 0.1 W 6 6 3 3 1018.4 - 0.2
21/04:30am 8.2 7.0 8.1 99 0.1 WNW 4 6 2 3 1018.5 - 0.2
21/04:00am 7.2 5.2 7.1 99 0.1 NW 7 7 4 4 1018.6 - 0.2
21/03:41am 8.2 7.0 8.1 99 0.1 NW 4 6 2 3 1018.7 - 0.0
21/03:30am 6.9 5.4 6.8 99 0.0 NW 4 6 2 3 1018.7 - 0.0
21/03:00am 6.5 4.5 6.4 99 0.0 N 6 7 3 4 1019.0 1016.7 0.0
21/02:38am 6.6 4.5 6.5 99 0.0 N 7 7 4 4 1019.1 - 0.0
21/02:30am 7.2 5.2 7.1 99 0.1 NNW 7 9 4 5 1019.3 - 0.0
21/02:29am 8.0 6.2 7.9 99 0.1 NNW 7 9 4 5 1019.3 - 0.0
21/02:10am 6.3 4.1 6.2 99 0.0 NNW 7 7 4 4 1019.5 - 0.0
21/02:09am 6.5 4.3 6.4 99 0.0 NNW 7 7 4 4 1019.5 - 0.0
21/02:00am 8.2 6.6 8.1 99 0.1 NNW 6 7 3 4 1019.6 - 0.0
21/01:30am 7.8 6.5 7.7 99 0.1 NW 4 4 2 2 1019.9 - 0.0
21/01:01am 7.8 6.9 7.7 99 0.1 WNW 2 2 1 1 1020.1 - 0.0
21/01:00am 7.7 6.8 7.6 99 0.1 WNW 2 4 1 2 1020.1 - 0.0
21/12:52am 8.2 7.4 8.1 99 0.1 NW 2 4 1 2 1020.1 - 0.0
21/12:33am 8.2 7.4 8.1 99 0.1 NW 2 2 1 1 1020.2 - 0.0
21/12:30am 8.4 7.6 8.3 99 0.1 NNW 2 2 1 1 1020.2 - 0.0
21/12:00am 7.8 6.5 7.7 99 0.1 NNW 4 6 2 3 1020.3 1018.0 0.0
 
Date/Time
EDT
Temp
°C
App
Temp
°C
Dew
Point
Rel
Hum
%
Delta-T
°C
Wind Press
QNH
hPa
Press
MSL
hPa
Rain
since 9 am
mm
Dir
 
Spd
km/h
Gust
km/h
Spd
kts
Gust
kts
20/11:30pm 9.0 8.0 8.9 99 0.1 WNW 4 4 2 2 1020.5 - 0.0
20/11:00pm 9.6 8.8 9.5 99 0.1 WSW 4 6 2 3 1020.6 - 0.0
20/10:30pm 9.6 8.8 9.5 99 0.1 SW 4 7 2 4 1020.6 - 0.0
20/10:00pm 9.1 7.5 8.8 98 0.2 SW 7 9 4 5 1020.7 - 0.0
20/09:30pm 9.0 7.7 7.8 92 0.6 SW 4 7 2 4 1020.5 - 0.0
20/09:00pm 10.7 9.3 8.8 88 1.0 S 6 7 3 4 1020.4 1018.1 0.0
20/08:30pm 11.9 10.0 8.9 82 1.6 SE 9 13 5 7 1020.3 - 0.0
20/08:00pm 13.4 11.2 9.3 76 2.2 SE 11 13 6 7 1019.9 - 0.0
20/07:30pm 14.7 12.7 10.1 74 2.6 ESE 11 15 6 8 1019.6 - 0.0
20/07:00pm 15.1 13.4 9.7 70 3.0 ESE 9 15 5 8 1019.3 - 0.0
20/06:30pm 16.0 13.7 10.3 69 3.2 ESE 13 17 7 9 1019.1 - 0.0
20/06:00pm 16.1 14.1 10.0 67 3.4 ESE 11 19 6 10 1018.9 1016.6 0.0
20/05:30pm 16.3 14.3 10.2 67 3.4 SSE 11 20 6 11 1018.9 - 0.0
20/05:00pm 16.6 14.1 9.8 64 3.8 ESE 13 17 7 9 1018.9 - 0.0
20/04:30pm 17.3 15.2 9.7 61 4.3 ESE 11 15 6 8 1019.0 - 0.0
20/04:00pm 17.2 15.4 9.6 61 4.3 E 9 15 5 8 1019.1 - 0.0
20/03:30pm 16.9 14.6 9.1 60 4.3 SE 11 17 6 9 1019.3 - 0.0
20/03:00pm 17.8 15.1 7.2 50 5.7 SSE 11 19 6 10 1019.1 1016.8 0.0
20/02:30pm 17.9 14.8 7.3 50 5.7 S 13 20 7 11 1019.1 - 0.0
20/02:00pm 17.5 15.4 8.1 54 5.1 E 9 17 5 9 1019.1 - 0.0
20/01:30pm 18.9 17.0 10.5 58 4.8 ESE 11 20 6 11 1019.1 - 0.0
20/01:00pm 18.2 15.7 9.8 58 4.7 E 13 20 7 11 1019.3 - 0.0
20/12:30pm 16.8 14.7 8.2 57 4.7 E 9 17 5 9 1019.4 - 0.0
20/12:00pm 16.9 14.2 7.5 54 5.0 SSW 11 20 6 11 1019.4 1017.0 0.0
20/11:30am 17.1 14.9 7.7 54 5.1 SW 9 19 5 10 1019.4 - 0.0
20/11:00am 16.8 15.1 7.4 54 5.0 S 6 13 3 7 1019.4 - 0.0
20/10:30am 16.8 15.0 8.0 56 4.8 E 7 15 4 8 1019.3 - 0.0
20/10:00am 16.0 13.8 6.4 53 5.0 E 7 13 4 7 1019.4 - 0.0
20/09:30am 14.6 12.4 5.1 53 4.8 SE 6 11 3 6 1019.3 - 0.0
20/09:00am 13.5 11.7 5.2 57 4.2 W 4 7 2 4 1019.1 1016.8 0.0
20/08:30am 12.1 10.4 3.9 57 4.0 WSW 2 6 1 3 1019.0 - 0.0
20/08:00am 11.0 8.4 3.3 59 3.6 SW 6 9 3 5 1018.9 - 0.0
20/07:30am 9.0 6.8 1.2 58 3.5 NW 2 4 1 2 1018.7 - 0.0
20/07:00am 6.8 5.2 2.7 75 1.8 CALM 0 4 0 2 1018.4 - 0.0
20/06:30am 3.7 0.9 -0.5 74 1.7 NW 4 6 2 3 1018.1 - 0.0
20/06:00am 3.6 0.2 -2.1 66 2.2 NW 6 6 3 3 1017.9 1015.5 0.0
20/05:30am 1.6 -1.8 -2.0 77 1.4 NNW 6 7 3 4 1017.9 - 0.0
20/05:00am 1.2 -0.8 -0.3 90 0.6 CALM 0 4 0 2 1017.8 - 0.0
20/04:30am 1.5 -1.4 1.2 98 0.1 NNW 6 7 3 4 1017.6 - 0.0
20/04:00am 1.6 -0.9 1.5 99 0.0 N 4 6 2 3 1017.8 - 0.0
20/03:30am 2.4 -0.4 2.3 99 0.0 WNW 6 7 3 4 1017.7 - 0.0
20/03:00am 2.2 -0.8 2.1 99 0.0 NW 7 7 4 4 1017.9 1015.5 0.0
20/02:30am 3.1 0.8 3.0 99 0.0 WNW 4 4 2 2 1018.2 - 0.0
20/02:00am 3.1 0.4 2.7 97 0.2 WNW 6 6 3 3 1018.6 - 0.0
20/01:30am 4.1 1.9 3.4 95 0.3 SW 4 7 2 4 1018.8 - 0.0
20/01:00am 5.1 2.7 4.5 96 0.3 W 6 11 3 6 1019.1 - 0.0
20/12:30am 5.3 3.4 5.0 98 0.1 WSW 4 6 2 3 1019.4 - 0.0
20/12:00am 5.1 2.6 5.0 99 0.0 SW 7 9 4 5 1019.7 1017.4 0.0
 
Date/Time
EDT
Temp
°C
App
Temp
°C
Dew
Point
Rel
Hum
%
Delta-T
°C
Wind Press
QNH
hPa
Press
MSL
hPa
Rain
since 9 am
mm
Dir
 
Spd
km/h
Gust
km/h
Spd
kts
Gust
kts
19/11:30pm 4.3 1.9 4.2 99 0.0 SW 6 7 3 4 1019.8 - 0.0
19/11:00pm 3.4 0.8 3.0 97 0.2 SW 6 7 3 4 1020.1 - 0.0
19/10:30pm 3.3 0.9 2.4 94 0.4 SW 4 6 2 3 1020.1 - 0.0
19/10:00pm 3.8 1.0 2.9 94 0.4 SSW 7 7 4 4 1019.7 - 0.0
19/09:30pm 4.2 1.5 2.9 91 0.6 SSW 6 7 3 4 1019.4 - 0.0
19/09:00pm 5.6 3.0 3.3 85 1.0 S 6 7 3 4 1019.4 1017.0 0.0
19/08:30pm 6.7 4.0 3.7 81 1.4 S 7 11 4 6 1019.1 - 0.0
19/08:00pm 8.0 4.6 4.0 76 1.9 S 11 17 6 9 1019.0 - 0.0
19/07:30pm 8.8 5.0 3.8 71 2.4 S 13 20 7 11 1018.6 - 0.0
19/07:00pm 10.8 6.7 4.3 64 3.1 SSW 15 20 8 11 1017.8 - 0.0
19/06:30pm 10.4 7.0 4.1 65 3.0 S 11 17 6 9 1017.4 - 0.0
19/06:00pm 11.5 8.2 4.5 62 3.4 S 11 15 6 8 1017.2 1014.8 0.0
19/05:30pm 11.1 7.3 3.9 61 3.5 S 13 17 7 9 1017.2 - 0.0
19/05:00pm 11.6 8.3 4.8 63 3.3 S 11 20 6 11 1016.9 - 0.0
19/04:30pm 11.4 8.5 4.8 64 3.2 SSE 9 13 5 7 1016.8 - 0.0
19/04:00pm 11.6 8.3 4.8 63 3.3 S 11 17 6 9 1016.8 - 0.0
19/03:30pm 11.4 8.0 4.2 61 3.5 SSE 11 20 6 11 1016.7 - 0.0
19/03:00pm 11.5 7.8 4.3 61 3.5 SW 13 19 7 10 1016.7 1014.2 0.0
19/02:30pm 11.7 8.0 4.2 60 3.6 S 13 20 7 11 1016.3 - 0.0
19/02:00pm 12.0 8.6 3.8 57 4.0 SSW 11 17 6 9 1016.3 - 0.0
19/01:30pm 11.2 7.5 4.4 63 3.3 S 13 24 7 13 1016.4 - 0.0
19/01:00pm 11.0 6.9 4.2 63 3.3 SSE 15 28 8 15 1016.3 - 0.0
19/12:30pm 10.4 6.5 3.2 61 3.4 SSE 13 22 7 12 1016.2 - 0.0
19/12:00pm 9.5 6.2 2.6 62 3.2 S 9 20 5 11 1016.2 1013.8 0.0

Other Formats:

Comma delimited format used in spreadsheet applications
http://www.bom.gov.au/fwo/IDV60801/IDV60801.94905.axf

JavaScript Object Notation format (JSON) in row-major order
http://www.bom.gov.au/fwo/IDV60801/IDV60801.94905.json